Time;durP1;ratioP1;P1;durP2;ratioP2;P2;SDS_P1;SDS_P2;PMS_P1;PMS_P2;Temp;Humidity;BMP_temperature;BMP_pressure;BME280_temperature;BME280_humidity;BME280_pressure;Samples;Min_cycle;Max_cycle;Signal;HPM_P1;HPM_P2
2023/10/10 00:01:07;;;;;;;19.70;10.30;;;;;;;;;;4826691;29;20589;-41
2023/10/10 00:03:39;;;;;;;22.88;10.00;;;;;;;;;;4826959;29;20208;-41
2023/10/10 00:06:08;;;;;;;20.35;10.13;;;;;;;;;;4826485;29;20219;-43
2023/10/10 00:08:40;;;;;;;23.13;10.50;;;;;;;;;;4826563;29;20208;-41
2023/10/10 00:11:14;;;;;;;22.27;10.38;;;;;;;;;;4826715;29;20204;-44
2023/10/10 00:13:42;;;;;;;22.23;10.07;;;;;;;;;;4826470;29;20212;-44
2023/10/10 00:16:11;;;;;;;18.90;9.75;;;;;;;;;;4826448;29;20276;-41
2023/10/10 00:18:43;;;;;;;24.90;10.43;;;;;;;;;;4826435;29;20224;-42
2023/10/10 00:21:20;;;;;;;54.80;19.73;;;;;;;;;;4826067;29;20231;-42
2023/10/10 00:23:47;;;;;;;23.55;10.85;;;;;;;;;;4826124;29;20236;-43
2023/10/10 00:26:14;;;;;;;16.80;9.27;;;;;;;;;;4826055;29;20212;-41
2023/10/10 00:28:53;;;;;;;16.70;9.13;;;;;;;;;;4826001;29;20670;-44
2023/10/10 00:31:22;;;;;;;21.48;9.55;;;;;;;;;;4826382;29;20600;-42
2023/10/10 00:33:51;;;;;;;17.30;8.88;;;;;;;;;;4825982;29;20212;-43
2023/10/10 00:36:22;;;;;;;16.13;8.82;;;;;;;;;;4825999;29;20672;-42
2023/10/10 00:38:50;;;;;;;18.25;9.13;;;;;;;;;;4826267;29;20208;-42
2023/10/10 00:41:17;;;;;;;17.85;8.93;;;;;;;;;;4839905;29;20311;-42
2023/10/10 00:43:45;;;;;;;19.63;10.27;;;;;;;;;;4839811;29;20673;-40
2023/10/10 00:46:12;;;;;;;21.08;10.50;;;;;;;;;;4825751;29;20216;-43
2023/10/10 00:48:39;;;;;;;14.87;8.43;;;;;;;;;;4825730;29;20216;-41
2023/10/10 00:51:10;;;;;;;16.50;8.50;;;;;;;;;;4839752;29;20585;-42
2023/10/10 00:53:45;;;;;;;18.80;9.00;;;;;;;;;;4839956;29;20276;-42
2023/10/10 00:56:13;;;;;;;20.30;9.23;;;;;;;;;;4826013;29;20296;-40
2023/10/10 00:58:42;;;;;;;21.05;10.82;;;;;;;;;;4825458;29;20630;-43
2023/10/10 01:01:10;;;;;;;20.17;9.90;;;;;;;;;;4839717;29;20246;-42
2023/10/10 01:03:42;;;;;;;16.60;8.85;;;;;;;;;;4825497;29;20216;-42
2023/10/10 01:06:24;;;;;;;19.50;9.48;;;;;;;;;;4824430;29;20197;-42
2023/10/10 01:09:04;;;;;;;18.27;9.90;;;;;;;;;;4839960;29;20208;-41
2023/10/10 01:11:31;;;;;;;23.33;12.93;;;;;;;;;;4824758;29;20239;-42
2023/10/10 01:13:58;;;;;;;33.55;17.65;;;;;;;;;;4825451;29;20215;-41
2023/10/10 01:16:27;;;;;;;25.23;10.83;;;;;;;;;;4839212;29;20204;-44
2023/10/10 01:18:57;;;;;;;27.05;11.73;;;;;;;;;;4825401;29;20615;-41
2023/10/10 01:21:50;;;;;;;23.73;10.30;;;;;;;;;;4825550;29;20242;-43
2023/10/10 01:24:17;;;;;;;22.33;8.97;;;;;;;;;;4825473;29;20677;-41
2023/10/10 01:26:45;;;;;;;21.25;10.05;;;;;;;;;;4825255;29;20299;-41
2023/10/10 01:29:21;;;;;;;19.38;9.05;;;;;;;;;;4825128;29;20212;-44
2023/10/10 01:31:51;;;;;;;13.85;7.70;;;;;;;;;;4839526;29;20215;-41
2023/10/10 01:34:33;;;;;;;15.57;8.33;;;;;;;;;;4825391;29;20212;-41
2023/10/10 01:37:14;;;;;;;15.87;8.17;;;;;;;;;;4838957;29;20870;-42
2023/10/10 01:39:56;;;;;;;14.10;7.43;;;;;;;;;;4825240;29;20208;-41
2023/10/10 01:42:36;;;;;;;16.70;9.27;;;;;;;;;;4825425;29;20236;-41
2023/10/10 01:45:07;;;;;;;21.85;12.77;;;;;;;;;;4838977;29;20219;-42
2023/10/10 01:47:39;;;;;;;16.88;10.23;;;;;;;;;;4824990;29;20638;-43
2023/10/10 01:50:07;;;;;;;17.03;9.07;;;;;;;;;;4838675;29;20558;-41
2023/10/10 01:52:36;;;;;;;27.77;9.87;;;;;;;;;;4824791;29;20212;-41
2023/10/10 01:55:05;;;;;;;24.95;8.60;;;;;;;;;;4838544;29;20697;-42
2023/10/10 01:57:32;;;;;;;17.23;8.07;;;;;;;;;;4825014;29;20288;-41
2023/10/10 02:00:11;;;;;;;18.03;8.50;;;;;;;;;;4838730;29;20573;-41
2023/10/10 02:02:38;;;;;;;28.67;9.27;;;;;;;;;;4824934;29;20215;-43
2023/10/10 02:05:11;;;;;;;13.60;8.45;;;;;;;;;;4838759;29;20212;-40
2023/10/10 02:07:39;;;;;;;15.13;8.83;;;;;;;;;;4825164;29;20216;-41
2023/10/10 02:10:13;;;;;;;18.87;9.03;;;;;;;;;;4837618;29;20212;-42
2023/10/10 02:12:45;;;;;;;14.20;8.17;;;;;;;;;;4823753;29;20307;-44
2023/10/10 02:15:14;;;;;;;14.57;7.53;;;;;;;;;;4837694;29;20654;-41
2023/10/10 02:17:51;;;;;;;19.83;8.33;;;;;;;;;;4852462;29;20211;-44
2023/10/10 02:22:52;;;;;;;15.50;8.00;;;;;;;;;;4824459;29;20642;-41
2023/10/10 02:27:56;;;;;;;20.20;8.83;;;;;;;;;;4824500;29;20212;-41
2023/10/10 02:30:37;;;;;;;15.07;8.03;;;;;;;;;;4824840;29;20212;-42
2023/10/10 02:33:55;;;;;;;16.23;8.38;;;;;;;;;;4824852;29;20216;-42
2023/10/10 02:35:55;;;;;;;14.27;7.90;;;;;;;;;;4823755;29;20216;-41
2023/10/10 02:38:34;;;;;;;15.00;7.60;;;;;;;;;;4824604;29;20247;-40
2023/10/10 02:44:05;;;;;;;16.67;7.93;;;;;;;;;;4824329;29;20269;-42
2023/10/10 02:46:38;;;;;;;16.15;8.50;;;;;;;;;;4838153;29;20200;-43
2023/10/10 02:49:13;;;;;;;13.93;7.80;;;;;;;;;;4838402;29;20216;-42
2023/10/10 02:51:43;;;;;;;15.53;8.53;;;;;;;;;;4838447;29;20215;-42
2023/10/10 02:56:53;;;;;;;16.67;8.73;;;;;;;;;;4824614;29;20236;-42
2023/10/10 02:59:22;;;;;;;17.13;8.17;;;;;;;;;;4824555;29;20196;-42
2023/10/10 03:04:22;;;;;;;17.02;8.70;;;;;;;;;;4824410;29;20269;-42
2023/10/10 03:06:50;;;;;;;18.40;9.90;;;;;;;;;;4841231;29;20288;-43
2023/10/10 03:12:03;;;;;;;22.70;10.40;;;;;;;;;;4841619;29;20219;-41
2023/10/10 03:14:34;;;;;;;15.00;7.77;;;;;;;;;;4841704;29;20216;-44
2023/10/10 03:17:31;;;;;;;16.83;9.23;;;;;;;;;;4841443;29;20227;-42
2023/10/10 03:20:02;;;;;;;23.77;10.60;;;;;;;;;;4827265;29;20204;-42
2023/10/10 03:22:52;;;;;;;15.33;9.00;;;;;;;;;;4827453;29;20235;-41
2023/10/10 03:25:28;;;;;;;13.03;7.53;;;;;;;;;;4827066;29;20685;-40
2023/10/10 03:28:04;;;;;;;19.13;9.03;;;;;;;;;;4826842;29;20208;-42
2023/10/10 03:30:50;;;;;;;16.00;7.90;;;;;;;;;;4841534;29;20219;-41
2023/10/10 03:33:43;;;;;;;17.97;8.30;;;;;;;;;;4841039;29;20646;-41
2023/10/10 03:36:23;;;;;;;18.43;10.00;;;;;;;;;;4841288;29;20197;-41
2023/10/10 05:23:35;;;;;;;27.40;12.67;;;;;;;;;;4823746;29;20231;-45
2023/10/10 05:26:06;;;;;;;24.10;12.57;;;;;;;;;;4824690;29;20215;-42
2023/10/10 05:28:34;;;;;;;102.03;37.17;;;;;;;;;;4823352;29;20253;-43
2023/10/10 05:31:02;;;;;;;633.50;127.63;;;;;;;;;;4825234;29;20212;-43
2023/10/10 05:33:36;;;;;;;191.57;42.50;;;;;;;;;;4825061;29;20693;-44
2023/10/10 05:36:06;;;;;;;142.10;29.93;;;;;;;;;;4825289;29;20208;-44
2023/10/10 05:38:39;;;;;;;296.00;59.67;;;;;;;;;;4825125;29;20654;-42
2023/10/10 05:41:07;;;;;;;379.10;85.77;;;;;;;;;;4825129;29;20581;-44
2023/10/10 05:43:34;;;;;;;53.33;20.33;;;;;;;;;;4825139;29;20250;-42
2023/10/10 05:46:04;;;;;;;35.93;14.30;;;;;;;;;;4825108;29;20223;-43
2023/10/10 05:48:32;;;;;;;24.93;11.37;;;;;;;;;;4825319;29;20212;-44
2023/10/10 05:51:00;;;;;;;16.67;8.90;;;;;;;;;;4825015;29;20212;-42
2023/10/10 05:53:32;;;;;;;17.93;9.13;;;;;;;;;;4838663;29;20686;-42
2023/10/10 05:56:12;;;;;;;13.73;8.87;;;;;;;;;;4824994;29;20251;-42
2023/10/10 05:58:44;;;;;;;18.07;9.70;;;;;;;;;;4825182;29;20196;-44
2023/10/10 06:01:13;;;;;;;24.10;11.20;;;;;;;;;;4824995;29;20217;-42
2023/10/10 06:03:41;;;;;;;33.42;13.43;;;;;;;;;;4824947;29;20717;-43
2023/10/10 06:06:13;;;;;;;58.53;18.73;;;;;;;;;;4824625;29;20282;-43
2023/10/10 06:08:44;;;;;;;53.50;15.30;;;;;;;;;;4824704;29;20689;-43
2023/10/10 06:11:16;;;;;;;21.52;9.07;;;;;;;;;;4824874;29;20630;-42
2023/10/10 06:13:43;;;;;;;14.32;9.30;;;;;;;;;;4825087;29;20227;-43
2023/10/10 06:16:13;;;;;;;16.42;8.38;;;;;;;;;;4824905;29;20211;-42
2023/10/10 06:18:49;;;;;;;19.83;8.52;;;;;;;;;;4824548;29;20272;-43
2023/10/10 06:21:18;;;;;;;15.80;8.70;;;;;;;;;;4824917;29;20204;-43
2023/10/10 06:23:45;;;;;;;70.60;20.63;;;;;;;;;;4824727;29;20589;-44
2023/10/10 06:26:13;;;;;;;33.10;12.88;;;;;;;;;;4824850;29;20576;-43
2023/10/10 06:28:47;;;;;;;43.37;15.57;;;;;;;;;;4824451;29;20677;-42
2023/10/10 06:31:19;;;;;;;32.72;13.40;;;;;;;;;;4824446;29;20203;-42
2023/10/10 06:33:51;;;;;;;29.38;11.52;;;;;;;;;;4824432;29;20210;-42
2023/10/10 06:41:40;;;;;;;81.93;27.17;;;;;;;;;;4828132;29;20219;-43
2023/10/10 06:44:13;;;;;;;56.55;18.73;;;;;;;;;;4828118;29;20628;-42
2023/10/10 06:46:46;;;;;;;28.92;12.93;;;;;;;;;;4842200;29;20211;-43
2023/10/10 06:49:14;;;;;;;31.07;13.40;;;;;;;;;;4827906;29;20264;-43
2023/10/10 06:51:42;;;;;;;30.93;13.37;;;;;;;;;;4827612;29;20216;-43
2023/10/10 06:54:19;;;;;;;27.30;12.80;;;;;;;;;;4827612;29;20260;-44
2023/10/10 06:59:28;;;;;;;48.92;18.73;;;;;;;;;;4827847;29;20622;-43
2023/10/10 07:01:59;;;;;;;52.83;17.58;;;;;;;;;;4827402;29;20200;-45
2023/10/10 07:04:28;;;;;;;28.88;12.35;;;;;;;;;;4827419;29;20205;-42
2023/10/10 07:07:00;;;;;;;17.80;9.68;;;;;;;;;;4827138;29;20222;-42
2023/10/10 07:09:29;;;;;;;28.33;12.80;;;;;;;;;;4827661;29;20208;-42
2023/10/10 07:12:09;;;;;;;31.10;14.50;;;;;;;;;;4827294;29;20604;-43
2023/10/10 07:14:43;;;;;;;27.92;12.63;;;;;;;;;;4827349;29;20212;-45
2023/10/10 07:17:14;;;;;;;29.20;13.98;;;;;;;;;;4827573;29;20212;-44
2023/10/10 07:22:36;;;;;;;24.33;12.35;;;;;;;;;;4827311;29;20224;-42
2023/10/10 07:25:07;;;;;;;27.30;13.30;;;;;;;;;;4827625;29;20200;-42
2023/10/10 07:27:39;;;;;;;30.75;13.90;;;;;;;;;;4827042;29;20302;-42
2023/10/10 07:30:17;;;;;;;26.63;13.27;;;;;;;;;;4827275;29;20219;-43
2023/10/10 07:32:48;;;;;;;26.88;12.38;;;;;;;;;;4826945;29;20208;-43
2023/10/10 07:35:19;;;;;;;33.15;14.75;;;;;;;;;;4826946;29;20223;-43
2023/10/10 07:37:47;;;;;;;35.17;15.55;;;;;;;;;;4826797;29;20678;-43
2023/10/10 07:40:21;;;;;;;33.28;16.58;;;;;;;;;;4826882;29;20208;-43
2023/10/10 07:42:58;;;;;;;26.58;12.57;;;;;;;;;;4827008;29;20745;-43
2023/10/10 07:45:44;;;;;;;23.13;13.15;;;;;;;;;;4827124;29;20208;-42
2023/10/10 07:50:49;;;;;;;20.48;12.20;;;;;;;;;;4825970;29;20208;-44
2023/10/10 07:53:17;;;;;;;21.40;12.30;;;;;;;;;;4827049;29;20211;-44
2023/10/10 07:58:27;;;;;;;26.25;12.23;;;;;;;;;;4826926;29;20287;-44
2023/10/10 08:01:18;;;;;;;21.58;12.57;;;;;;;;;;4827081;29;20199;-43
2023/10/10 08:03:47;;;;;;;18.83;11.90;;;;;;;;;;4826416;29;20220;-43
2023/10/10 08:06:22;;;;;;;24.75;13.35;;;;;;;;;;4826457;29;20237;-43
2023/10/10 08:11:56;;;;;;;22.38;13.77;;;;;;;;;;4861085;29;20210;-44
2023/10/10 08:14:31;;;;;;;28.23;15.05;;;;;;;;;;4861096;29;20225;-43
2023/10/10 08:17:04;;;;;;;23.13;12.98;;;;;;;;;;4860959;29;20210;-43
2023/10/10 08:19:33;;;;;;;22.13;12.80;;;;;;;;;;4861013;29;20251;-44
2023/10/10 08:22:12;;;;;;;27.70;14.50;;;;;;;;;;4860994;29;20210;-44
2023/10/10 08:24:43;;;;;;;19.52;12.27;;;;;;;;;;4860949;29;20206;-45
2023/10/10 08:27:11;;;;;;;25.10;13.45;;;;;;;;;;4860950;29;20692;-43
2023/10/10 08:29:40;;;;;;;26.55;13.95;;;;;;;;;;4860745;29;20207;-45
2023/10/10 08:32:08;;;;;;;25.40;14.10;;;;;;;;;;4860668;29;20206;-43
2023/10/10 08:34:42;;;;;;;25.60;14.70;;;;;;;;;;4860642;29;20234;-43
2023/10/10 08:37:10;;;;;;;24.13;13.23;;;;;;;;;;4860917;29;20206;-43
2023/10/10 08:39:39;;;;;;;24.42;13.55;;;;;;;;;;4860450;29;20615;-43
2023/10/10 08:42:10;;;;;;;28.23;15.68;;;;;;;;;;4852351;29;20220;-43
2023/10/10 08:44:39;;;;;;;28.75;14.88;;;;;;;;;;4826052;29;20666;-43
2023/10/10 08:47:08;;;;;;;26.15;14.50;;;;;;;;;;4825998;29;20216;-44
2023/10/10 08:49:35;;;;;;;27.85;15.57;;;;;;;;;;4825730;29;20213;-44
2023/10/10 08:52:03;;;;;;;28.48;15.35;;;;;;;;;;4825971;29;20220;-43
2023/10/10 08:54:32;;;;;;;26.35;14.90;;;;;;;;;;4839534;29;20581;-43
2023/10/10 08:56:59;;;;;;;23.48;14.52;;;;;;;;;;4825775;29;20721;-43
2023/10/10 08:59:29;;;;;;;26.55;14.63;;;;;;;;;;4839346;29;20674;-44
2023/10/10 09:02:06;;;;;;;22.48;14.20;;;;;;;;;;4825669;29;20219;-43
2023/10/10 09:04:33;;;;;;;24.27;12.98;;;;;;;;;;4824971;29;20713;-43
2023/10/10 09:07:08;;;;;;;21.67;12.95;;;;;;;;;;4825612;29;20208;-43
2023/10/10 09:09:40;;;;;;;23.20;13.07;;;;;;;;;;4825526;29;20644;-43
2023/10/10 09:12:14;;;;;;;22.98;13.27;;;;;;;;;;4825431;29;20273;-45
2023/10/10 09:14:49;;;;;;;20.73;12.50;;;;;;;;;;4825748;29;20558;-43
2023/10/10 09:17:45;;;;;;;17.67;11.25;;;;;;;;;;4825915;29;20203;-44
2023/10/10 09:20:23;;;;;;;22.88;11.75;;;;;;;;;;4825502;29;20216;-44
2023/10/10 09:22:51;;;;;;;22.92;11.95;;;;;;;;;;4825553;29;20236;-45
2023/10/10 09:25:25;;;;;;;17.30;10.93;;;;;;;;;;4825302;29;20208;-45
2023/10/10 09:28:07;;;;;;;21.35;10.68;;;;;;;;;;4825250;29;20204;-43
2023/10/10 09:30:49;;;;;;;19.70;10.45;;;;;;;;;;4825155;29;20742;-44
2023/10/10 09:33:27;;;;;;;17.42;11.02;;;;;;;;;;4825681;29;20563;-45
2023/10/10 09:36:08;;;;;;;17.80;10.35;;;;;;;;;;4825483;29;20200;-44
2023/10/10 09:38:36;;;;;;;20.60;10.70;;;;;;;;;;4825631;29;20211;-46
2023/10/10 09:41:10;;;;;;;16.40;10.65;;;;;;;;;;4824961;29;20265;-43
2023/10/10 09:43:49;;;;;;;17.30;10.77;;;;;;;;;;4825300;29;20288;-44
2023/10/10 09:46:24;;;;;;;19.92;10.65;;;;;;;;;;4825500;29;20234;-45
2023/10/10 09:52:47;;;;;;;22.52;11.30;;;;;;;;;;4824924;29;20203;-45
2023/10/10 09:54:16;;;;;;;18.27;10.73;;;;;;;;;;4823954;29;20683;-43
2023/10/10 09:56:48;;;;;;;21.50;11.77;;;;;;;;;;4823415;29;20319;-43
2023/10/10 09:59:16;;;;;;;22.70;10.82;;;;;;;;;;4824824;29;20223;-44
2023/10/10 10:01:47;;;;;;;22.45;11.48;;;;;;;;;;4824882;29;20240;-44
2023/10/10 10:04:24;;;;;;;17.52;10.38;;;;;;;;;;4824190;29;20685;-44
2023/10/10 10:07:15;;;;;;;15.00;9.70;;;;;;;;;;4823659;29;20215;-44
2023/10/10 10:09:51;;;;;;;10.52;7.50;;;;;;;;;;4827623;29;20579;-45
2023/10/10 10:12:37;;;;;;;14.43;8.13;;;;;;;;;;4824506;29;20214;-44
2023/10/10 10:15:28;;;;;;;13.02;7.10;;;;;;;;;;4824548;29;20264;-44
2023/10/10 10:18:13;;;;;;;12.02;7.88;;;;;;;;;;4838263;29;20330;-43
2023/10/10 10:20:48;;;;;;;19.58;7.88;;;;;;;;;;4824619;29;20216;-44
2023/10/10 10:23:25;;;;;;;16.42;8.57;;;;;;;;;;4824489;29;20277;-44
2023/10/10 10:26:12;;;;;;;13.90;8.48;;;;;;;;;;4837732;29;20626;-44
2023/10/10 10:28:42;;;;;;;13.85;7.70;;;;;;;;;;4824867;29;20192;-43
2023/10/10 10:31:16;;;;;;;13.68;8.48;;;;;;;;;;4824557;29;20662;-44
2023/10/10 10:34:08;;;;;;;15.95;9.20;;;;;;;;;;4824501;29;20670;-44
2023/10/10 10:36:41;;;;;;;10.40;7.40;;;;;;;;;;4824423;29;20212;-44
2023/10/10 10:39:20;;;;;;;10.98;7.57;;;;;;;;;;4824404;29;20674;-44
2023/10/10 10:41:53;;;;;;;15.15;8.38;;;;;;;;;;4824265;29;20592;-44
2023/10/10 10:47:35;;;;;;;12.00;7.22;;;;;;;;;;4824702;29;20212;-44
2023/10/10 10:50:04;;;;;;;13.75;7.65;;;;;;;;;;4824272;29;20562;-44
2023/10/10 10:52:44;;;;;;;10.95;7.00;;;;;;;;;;4824515;29;20219;-43
2023/10/10 10:55:23;;;;;;;13.27;7.82;;;;;;;;;;4824638;29;20240;-43
2023/10/10 10:58:05;;;;;;;14.50;7.38;;;;;;;;;;4824096;29;20216;-44
2023/10/10 11:00:56;;;;;;;7.78;5.68;;;;;;;;;;4824913;29;20216;-43
2023/10/10 11:03:25;;;;;;;12.43;6.90;;;;;;;;;;4824119;29;20236;-43
2023/10/10 11:05:55;;;;;;;12.23;6.78;;;;;;;;;;4824075;29;20204;-44
2023/10/10 11:08:51;;;;;;;8.98;5.82;;;;;;;;;;4824164;29;20235;-43
2023/10/10 11:11:36;;;;;;;9.82;5.20;;;;;;;;;;4824512;29;20215;-44
2023/10/10 11:14:25;;;;;;;13.43;5.72;;;;;;;;;;4824014;29;20223;-44
2023/10/10 11:16:58;;;;;;;7.78;5.20;;;;;;;;;;4823937;29;20220;-44
2023/10/10 11:22:38;;;;;;;9.25;5.63;;;;;;;;;;4823975;29;20583;-43
2023/10/10 11:25:05;;;;;;;11.10;6.35;;;;;;;;;;4824158;29;20596;-43
2023/10/10 11:27:43;;;;;;;9.98;6.00;;;;;;;;;;4826116;29;20693;-44
2023/10/10 11:30:12;;;;;;;11.65;6.38;;;;;;;;;;4827323;29;20200;-44
2023/10/10 11:32:47;;;;;;;10.43;5.97;;;;;;;;;;4827333;29;20635;-43
2023/10/10 11:35:22;;;;;;;13.23;7.00;;;;;;;;;;4827289;29;20212;-44
2023/10/10 11:37:59;;;;;;;13.45;7.32;;;;;;;;;;4826837;29;20212;-43
2023/10/10 11:42:56;;;;;;;17.13;8.55;;;;;;;;;;4826803;29;20292;-44
2023/10/10 11:45:27;;;;;;;19.63;9.07;;;;;;;;;;4827103;29;20236;-43
2023/10/10 11:48:01;;;;;;;8.45;5.32;;;;;;;;;;4827093;29;20223;-44
2023/10/10 11:50:45;;;;;;;9.57;5.95;;;;;;;;;;4826848;29;20211;-44
2023/10/10 11:53:14;;;;;;;8.07;5.38;;;;;;;;;;4827116;29;20208;-43
2023/10/10 11:55:42;;;;;;;7.35;4.63;;;;;;;;;;4827031;29;20251;-44
2023/10/10 11:58:16;;;;;;;6.57;4.57;;;;;;;;;;4826898;29;20204;-44
2023/10/10 12:01:03;;;;;;;7.78;4.93;;;;;;;;;;4830567;29;20227;-46
2023/10/10 12:04:04;;;;;;;7.65;4.82;;;;;;;;;;4833771;29;20232;-43
2023/10/10 12:06:26;;;;;;;7.53;4.70;;;;;;;;;;4833764;29;20224;-47
2023/10/10 12:08:54;;;;;;;8.93;4.88;;;;;;;;;;4824975;29;20268;-47
2023/10/10 12:11:22;;;;;;;9.38;5.82;;;;;;;;;;4824509;29;20236;-44
2023/10/10 12:13:51;;;;;;;11.30;6.05;;;;;;;;;;4824537;29;20235;-45
2023/10/10 12:16:25;;;;;;;8.40;4.75;;;;;;;;;;4823028;29;20232;-47
2023/10/10 12:18:53;;;;;;;10.55;6.60;;;;;;;;;;4821689;29;22144;-45
2023/10/10 12:21:22;;;;;;;8.02;4.97;;;;;;;;;;4823410;29;20276;-44
2023/10/10 12:23:52;;;;;;;10.07;6.50;;;;;;;;;;4823762;29;20277;-46
2023/10/10 12:26:24;;;;;;;11.98;6.07;;;;;;;;;;4824274;29;20196;-44
2023/10/10 12:28:52;;;;;;;11.40;5.95;;;;;;;;;;4824333;29;20284;-43
2023/10/10 12:31:21;;;;;;;8.68;5.20;;;;;;;;;;4824609;29;20208;-47
2023/10/10 12:33:49;;;;;;;8.45;4.95;;;;;;;;;;4825112;29;20291;-45
2023/10/10 12:36:17;;;;;;;8.20;5.00;;;;;;;;;;4825330;29;20265;-45
2023/10/10 12:38:45;;;;;;;9.77;4.95;;;;;;;;;;4825389;29;20275;-44
2023/10/10 12:41:13;;;;;;;8.07;5.00;;;;;;;;;;4825550;29;20582;-48
2023/10/10 12:43:40;;;;;;;10.60;5.10;;;;;;;;;;4825215;29;20286;-43
2023/10/10 12:46:09;;;;;;;11.02;5.57;;;;;;;;;;4824677;29;20212;-45
2023/10/10 12:48:40;;;;;;;6.82;4.38;;;;;;;;;;4824516;29;20196;-43
2023/10/10 12:51:09;;;;;;;10.07;5.22;;;;;;;;;;4825232;29;20256;-43
2023/10/10 12:53:42;;;;;;;9.90;4.43;;;;;;;;;;4825074;29;20205;-44
2023/10/10 12:56:16;;;;;;;9.23;5.18;;;;;;;;;;4825319;29;20240;-43
2023/10/10 12:58:51;;;;;;;9.95;5.03;;;;;;;;;;4823125;29;20203;-44
2023/10/10 13:01:23;;;;;;;6.95;4.43;;;;;;;;;;4823597;29;20204;-44
2023/10/10 13:03:51;;;;;;;9.88;5.25;;;;;;;;;;4845727;29;20267;-44
2023/10/10 13:06:22;;;;;;;8.15;4.55;;;;;;;;;;4825412;29;20204;-44
2023/10/10 13:08:54;;;;;;;7.32;4.70;;;;;;;;;;4825210;29;20249;-43
2023/10/10 13:11:32;;;;;;;7.65;4.30;;;;;;;;;;4825157;29;20204;-44
2023/10/10 13:14:09;;;;;;;10.02;4.82;;;;;;;;;;4825393;29;20196;-43
2023/10/10 13:19:13;;;;;;;10.27;4.95;;;;;;;;;;4824202;29;20208;-44
2023/10/10 13:21:42;;;;;;;13.00;5.10;;;;;;;;;;4816159;29;20229;-47
2023/10/10 13:24:11;;;;;;;9.75;5.32;;;;;;;;;;4809807;29;20708;-44
2023/10/10 13:26:40;;;;;;;7.63;4.05;;;;;;;;;;4823880;29;20216;-45
2023/10/10 13:29:08;;;;;;;6.13;3.58;;;;;;;;;;4821223;29;20228;-42
2023/10/10 13:31:40;;;;;;;9.88;3.70;;;;;;;;;;4824781;29;20231;-46
2023/10/10 13:34:07;;;;;;;8.20;4.00;;;;;;;;;;4822224;29;20228;-48
2023/10/10 13:36:35;;;;;;;7.60;4.25;;;;;;;;;;4823168;29;20249;-46
2023/10/10 13:39:06;;;;;;;6.22;3.75;;;;;;;;;;4822859;29;20259;-43
2023/10/10 13:41:37;;;;;;;7.07;4.30;;;;;;;;;;4821920;29;20231;-44
2023/10/10 13:44:04;;;;;;;6.25;4.38;;;;;;;;;;4822878;29;20316;-45
2023/10/10 13:46:32;;;;;;;7.30;4.40;;;;;;;;;;4829829;29;20228;-43
2023/10/10 13:49:00;;;;;;;7.93;4.32;;;;;;;;;;4822003;29;20231;-43
2023/10/10 13:51:28;;;;;;;6.93;4.30;;;;;;;;;;4820780;29;20230;-43
2023/10/10 13:53:56;;;;;;;7.43;4.05;;;;;;;;;;4824695;29;20259;-47
2023/10/10 13:56:30;;;;;;;6.47;4.30;;;;;;;;;;4823462;29;20236;-44
2023/10/10 13:59:00;;;;;;;6.95;4.10;;;;;;;;;;4822950;29;20374;-49
2023/10/10 14:01:36;;;;;;;8.30;4.63;;;;;;;;;;4823210;29;20224;-45
2023/10/10 14:04:15;;;;;;;8.60;4.15;;;;;;;;;;4824265;29;20272;-44
2023/10/10 14:06:47;;;;;;;5.78;4.00;;;;;;;;;;4836038;29;20226;-43
2023/10/10 14:09:33;;;;;;;5.82;4.30;;;;;;;;;;4821469;29;20235;-44
2023/10/10 14:12:20;;;;;;;7.32;4.32;;;;;;;;;;4831686;29;20227;-45
2023/10/10 14:14:48;;;;;;;8.95;5.53;;;;;;;;;;4825707;29;20263;-44
2023/10/10 14:17:15;;;;;;;10.15;4.88;;;;;;;;;;4823930;29;20259;-45
2023/10/10 14:19:42;;;;;;;6.05;4.00;;;;;;;;;;4825980;29;20287;-44
2023/10/10 14:22:13;;;;;;;7.10;4.38;;;;;;;;;;4828358;29;20235;-44
2023/10/10 14:24:40;;;;;;;5.97;3.70;;;;;;;;;;4823223;29;20232;-47
2023/10/10 14:27:07;;;;;;;7.00;4.30;;;;;;;;;;4822621;29;20281;-43
2023/10/10 14:29:41;;;;;;;8.10;3.80;;;;;;;;;;4821531;29;20588;-40
2023/10/10 14:32:10;;;;;;;6.72;3.70;;;;;;;;;;4825645;29;20708;-43
2023/10/10 14:34:57;;;;;;;7.45;3.90;;;;;;;;;;4824597;29;20230;-43
2023/10/10 14:37:25;;;;;;;6.53;4.22;;;;;;;;;;4825943;29;20704;-44
2023/10/10 14:40:15;;;;;;;6.30;3.97;;;;;;;;;;4831868;29;20235;-45
2023/10/10 14:42:45;;;;;;;5.10;3.50;;;;;;;;;;4831501;29;20239;-45
2023/10/10 14:45:13;;;;;;;5.55;3.60;;;;;;;;;;4829808;29;20689;-43
2023/10/10 14:47:43;;;;;;;8.98;3.30;;;;;;;;;;4833386;29;20228;-41
2023/10/10 14:50:12;;;;;;;6.15;3.65;;;;;;;;;;4831449;29;20716;-42
2023/10/10 14:52:47;;;;;;;6.82;3.55;;;;;;;;;;4833434;29;20230;-42
2023/10/10 14:55:28;;;;;;;7.53;3.63;;;;;;;;;;4830801;29;20338;-44
2023/10/10 14:57:55;;;;;;;6.40;3.90;;;;;;;;;;4829752;29;20690;-46
2023/10/10 15:00:28;;;;;;;6.53;3.50;;;;;;;;;;4829187;29;20310;-44
2023/10/10 15:02:56;;;;;;;4.82;3.65;;;;;;;;;;4836576;29;20259;-48
2023/10/10 15:05:25;;;;;;;5.20;3.55;;;;;;;;;;4836678;29;20239;-44
2023/10/10 15:07:54;;;;;;;6.82;3.63;;;;;;;;;;4831253;29;20224;-44
2023/10/10 15:10:25;;;;;;;13.32;4.75;;;;;;;;;;4844500;29;20792;-43
2023/10/10 15:12:54;;;;;;;21.52;7.60;;;;;;;;;;4845180;29;20708;-46
2023/10/10 15:15:22;;;;;;;10.95;5.47;;;;;;;;;;4844897;29;20227;-41
2023/10/10 15:17:51;;;;;;;6.97;3.60;;;;;;;;;;4844745;29;20705;-44
2023/10/10 15:20:18;;;;;;;5.60;3.15;;;;;;;;;;4844495;29;20239;-41
2023/10/10 15:22:46;;;;;;;15.05;7.28;;;;;;;;;;4844906;29;20581;-42
2023/10/10 15:25:15;;;;;;;53.88;13.70;;;;;;;;;;4844550;29;20274;-42
2023/10/10 15:27:42;;;;;;;34.70;11.40;;;;;;;;;;4845070;29;20272;-42
2023/10/10 15:30:10;;;;;;;21.63;8.50;;;;;;;;;;4844172;29;20611;-39
2023/10/10 15:33:01;;;;;;;16.38;7.50;;;;;;;;;;4845128;29;20239;-44
2023/10/10 15:35:28;;;;;;;7.18;3.42;;;;;;;;;;4826676;29;20236;-20
2023/10/10 15:37:55;;;;;;;7.53;2.90;;;;;;;;;;4825816;29;20244;-21
2023/10/10 15:40:22;;;;;;;16.00;4.90;;;;;;;;;;4826077;29;20229;-20
2023/10/10 15:42:51;;;;;;;21.92;5.78;;;;;;;;;;4825931;29;20738;-20
2023/10/10 15:45:21;;;;;;;14.40;5.82;;;;;;;;;;4834654;29;20433;-20
2023/10/10 15:47:52;;;;;;;20.52;6.10;;;;;;;;;;4838677;29;20296;-25
2023/10/10 15:50:23;;;;;;;15.73;4.43;;;;;;;;;;4830087;29;20319;-23
2023/10/10 15:52:51;;;;;;;14.90;4.40;;;;;;;;;;4825972;29;20236;-22
2023/10/10 15:55:25;;;;;;;60.30;20.30;;;;;;;;;;4825520;29;20252;-23
2023/10/10 15:57:53;;;;;;;395.50;152.82;;;;;;;;;;4824538;29;20722;-26
2023/10/10 16:00:29;;;;;;;204.00;71.43;;;;;;;;;;4825379;29;20601;-23
2023/10/10 16:02:56;;;;;;;471.48;126.45;;;;;;;;;;4825444;29;20308;-28
2023/10/10 16:05:25;;;;;;;443.13;93.80;;;;;;;;;;4824962;29;20246;-25
2023/10/10 16:07:58;;;;;;;300.13;64.50;;;;;;;;;;4825197;29;20772;-23
2023/10/10 16:10:35;;;;;;;208.05;48.55;;;;;;;;;;4827309;29;20235;-27
2023/10/10 16:13:08;;;;;;;284.42;73.68;;;;;;;;;;4833002;29;20232;-25
2023/10/10 16:15:36;;;;;;;261.17;61.20;;;;;;;;;;4843853;29;20326;-27
2023/10/10 16:18:05;;;;;;;194.00;58.10;;;;;;;;;;4844125;29;20330;-22
2023/10/10 16:20:35;;;;;;;235.90;70.35;;;;;;;;;;4842793;29;20232;-25
2023/10/10 16:23:07;;;;;;;215.07;49.17;;;;;;;;;;4842042;29;20238;-22
2023/10/10 16:25:36;;;;;;;235.68;46.30;;;;;;;;;;4842364;29;20305;-22
2023/10/10 16:28:05;;;;;;;159.32;32.90;;;;;;;;;;4843367;29;20224;-24
2023/10/10 16:30:38;;;;;;;300.30;61.25;;;;;;;;;;4843366;29;20638;-21
2023/10/10 16:33:08;;;;;;;274.90;53.15;;;;;;;;;;4843526;29;20227;-24
2023/10/10 16:35:46;;;;;;;148.70;32.22;;;;;;;;;;4843061;29;20232;-22
2023/10/10 16:38:21;;;;;;;529.10;140.32;;;;;;;;;;4843818;29;20264;-23
2023/10/10 16:40:50;;;;;;;278.63;56.45;;;;;;;;;;4843613;29;20620;-23
2023/10/10 16:43:18;;;;;;;424.67;95.88;;;;;;;;;;4843507;29;20761;-21
2023/10/10 16:45:49;;;;;;;312.17;69.35;;;;;;;;;;4843810;29;20334;-23
2023/10/10 16:48:16;;;;;;;432.13;91.20;;;;;;;;;;4824903;29;20650;-21
2023/10/10 16:50:44;;;;;;;207.38;52.25;;;;;;;;;;4824084;29;20324;-27
2023/10/10 16:53:14;;;;;;;212.57;45.28;;;;;;;;;;4823979;29;20975;-26
2023/10/10 16:55:41;;;;;;;405.08;117.18;;;;;;;;;;4823729;29;20736;-22
2023/10/10 16:58:15;;;;;;;454.52;87.85;;;;;;;;;;4825224;29;20590;-25
2023/10/10 17:00:47;;;;;;;414.85;75.93;;;;;;;;;;4823904;29;20228;-24
2023/10/10 17:03:15;;;;;;;288.80;70.93;;;;;;;;;;4825224;29;20231;-22
2023/10/10 17:05:50;;;;;;;278.90;72.32;;;;;;;;;;4822060;29;20236;-27
2023/10/10 17:08:18;;;;;;;207.48;49.25;;;;;;;;;;4823572;29;20234;-22
2023/10/10 17:10:46;;;;;;;222.07;56.60;;;;;;;;;;4824579;29;20232;-22
2023/10/10 17:13:15;;;;;;;220.10;71.78;;;;;;;;;;4824403;29;20280;-20
2023/10/10 17:15:45;;;;;;;361.17;90.80;;;;;;;;;;4823098;29;20228;-24
2023/10/10 17:18:13;;;;;;;366.83;82.13;;;;;;;;;;4821570;29;20224;-23
2023/10/10 17:20:41;;;;;;;260.00;61.35;;;;;;;;;;4852281;29;20645;-22
2023/10/10 17:23:13;;;;;;;248.23;65.68;;;;;;;;;;4823276;29;20230;-27
2023/10/10 17:25:40;;;;;;;81.47;25.00;;;;;;;;;;4823336;29;20238;-25
2023/10/10 17:28:07;;;;;;;92.30;28.98;;;;;;;;;;4825801;29;20236;-23
2023/10/10 17:30:34;;;;;;;281.33;115.07;;;;;;;;;;4822359;29;20255;-25